createdAt,value
2023-03-30T00:00:57.105Z,5.30
2023-03-30T00:03:24.326Z,5.30
2023-03-30T00:05:52.093Z,5.30
2023-03-30T00:08:19.379Z,5.20
2023-03-30T00:10:47.847Z,5.20
2023-03-30T00:13:15.112Z,5.30
2023-03-30T00:15:42.037Z,5.20
2023-03-30T00:18:09.346Z,5.30
2023-03-30T00:20:37.871Z,5.30
2023-03-30T00:23:04.972Z,5.30
2023-03-30T00:25:31.775Z,5.30
2023-03-30T00:27:58.619Z,5.30
2023-03-30T00:30:26.071Z,5.30
2023-03-30T00:32:53.936Z,5.30
2023-03-30T00:35:21.150Z,5.30
2023-03-30T00:37:49.682Z,5.30
2023-03-30T00:40:20.234Z,5.30
2023-03-30T00:42:47.485Z,5.30
2023-03-30T00:45:25.736Z,5.30
2023-03-30T00:48:04.792Z,5.30
2023-03-30T00:50:40.694Z,5.30
2023-03-30T00:53:12.845Z,5.20
2023-03-30T00:55:41.392Z,5.20
2023-03-30T00:58:12.090Z,5.30
2023-03-30T01:00:40.407Z,5.30
2023-03-30T01:03:16.820Z,5.30
2023-03-30T01:05:45.078Z,5.30
2023-03-30T01:08:14.135Z,5.20
2023-03-30T01:10:41.255Z,5.20
2023-03-30T01:13:08.256Z,5.20
2023-03-30T01:15:38.895Z,5.20
2023-03-30T01:18:25.021Z,5.20
2023-03-30T01:21:13.117Z,5.30
2023-03-30T01:23:58.789Z,5.30
2023-03-30T01:27:10.029Z,5.30
2023-03-30T01:29:55.830Z,5.30
2023-03-30T01:32:28.652Z,5.30
2023-03-30T01:35:23.339Z,5.30
2023-03-30T01:38:23.360Z,5.30
2023-03-30T01:41:02.197Z,5.30
2023-03-30T01:43:39.026Z,5.20
2023-03-30T01:46:40.399Z,5.20
2023-03-30T01:49:35.254Z,5.20
2023-03-30T01:52:23.422Z,5.20
2023-03-30T01:55:01.225Z,5.20
2023-03-30T01:58:06.896Z,5.20
2023-03-30T02:00:36.471Z,5.10
2023-03-30T02:03:13.734Z,5.20
2023-03-30T02:05:42.273Z,5.20
2023-03-30T02:08:13.565Z,5.10
2023-03-30T02:10:44.201Z,5.10
2023-03-30T02:13:13.126Z,5.10
2023-03-30T02:15:50.438Z,5.10
2023-03-30T02:18:19.523Z,5.20
2023-03-30T02:20:47.588Z,5.10
2023-03-30T02:23:16.581Z,5.10
2023-03-30T02:25:43.673Z,5.10
2023-03-30T02:28:10.916Z,5.10
2023-03-30T02:30:42.726Z,5.10
2023-03-30T02:33:19.234Z,5.10
2023-03-30T02:35:53.583Z,5.10
2023-03-30T02:38:32.411Z,5.10
2023-03-30T02:41:05.448Z,5.00
2023-03-30T02:43:47.932Z,5.00
2023-03-30T02:46:49.134Z,5.00
2023-03-30T02:49:39.156Z,5.00
2023-03-30T02:52:23.241Z,5.00
2023-03-30T02:55:05.066Z,5.00
2023-03-30T02:58:16.328Z,5.00
2023-03-30T03:00:53.745Z,5.00
2023-03-30T03:03:25.536Z,5.00
2023-03-30T03:05:54.098Z,4.90
2023-03-30T03:08:25.523Z,4.90
2023-03-30T03:10:52.571Z,4.90
2023-03-30T03:13:22.179Z,4.90
2023-03-30T03:15:49.824Z,4.90
2023-03-30T03:18:16.823Z,4.90
2023-03-30T03:20:43.764Z,4.90
2023-03-30T03:23:10.947Z,4.90
2023-03-30T03:25:37.816Z,4.90
2023-03-30T03:28:05.036Z,4.80
2023-03-30T03:30:32.146Z,4.80
2023-03-30T03:32:59.046Z,4.80
2023-03-30T03:35:25.922Z,4.80
2023-03-30T03:37:52.881Z,4.80
2023-03-30T03:40:20.249Z,4.80
2023-03-30T03:42:47.403Z,4.70
2023-03-30T03:45:14.514Z,4.70
2023-03-30T03:47:41.589Z,4.80
2023-03-30T03:50:10.103Z,4.80
2023-03-30T03:52:37.589Z,4.70
2023-03-30T03:55:05.308Z,4.80
2023-03-30T03:57:32.309Z,4.80
2023-03-30T04:00:00.045Z,4.80
2023-03-30T04:02:28.044Z,4.80
2023-03-30T04:04:55.850Z,4.80
2023-03-30T04:07:25.629Z,4.80
2023-03-30T04:09:52.616Z,4.80
2023-03-30T04:12:20.420Z,4.80
2023-03-30T04:14:47.452Z,4.80
2023-03-30T04:17:15.032Z,4.80
2023-03-30T04:19:42.186Z,4.80
2023-03-30T04:22:09.365Z,4.80
2023-03-30T04:24:36.379Z,4.80
2023-03-30T04:27:03.957Z,4.80
2023-03-30T04:29:31.124Z,4.80
2023-03-30T04:32:03.001Z,4.80
2023-03-30T04:34:31.284Z,4.80
2023-03-30T04:36:58.357Z,4.80
2023-03-30T04:39:30.504Z,4.80
2023-03-30T04:41:57.473Z,4.80
2023-03-30T04:44:24.423Z,4.80
2023-03-30T04:46:51.245Z,4.80
2023-03-30T04:49:18.145Z,4.80
2023-03-30T04:51:45.046Z,4.90
2023-03-30T04:54:12.032Z,4.90
2023-03-30T04:56:39.011Z,4.90
2023-03-30T04:59:06.179Z,4.90
2023-03-30T05:01:33.564Z,4.90
2023-03-30T05:04:00.625Z,4.80
2023-03-30T05:06:27.527Z,4.90
2023-03-30T05:08:54.440Z,4.90
2023-03-30T05:11:21.302Z,4.90
2023-03-30T05:13:50.793Z,4.90
2023-03-30T05:16:17.743Z,5.00
2023-03-30T05:18:44.826Z,4.90
2023-03-30T05:21:11.996Z,5.00
2023-03-30T05:23:39.802Z,5.00
2023-03-30T05:26:07.592Z,5.00
2023-03-30T05:28:34.883Z,5.00
2023-03-30T05:31:02.531Z,5.10
2023-03-30T05:33:29.720Z,5.10
2023-03-30T05:35:56.978Z,5.20
2023-03-30T05:38:23.950Z,5.10
2023-03-30T05:40:54.767Z,5.20
2023-03-30T05:43:21.909Z,5.20
2023-03-30T05:45:49.205Z,5.20
2023-03-30T05:48:16.416Z,5.20
2023-03-30T05:50:43.265Z,5.30
2023-03-30T05:53:11.034Z,5.30
2023-03-30T05:55:38.266Z,5.30
2023-03-30T05:58:05.331Z,5.30
2023-03-30T06:00:36.870Z,5.40
2023-03-30T06:03:04.765Z,5.50
2023-03-30T06:05:33.938Z,5.60
2023-03-30T06:08:01.098Z,5.70
2023-03-30T06:10:29.317Z,5.70
2023-03-30T06:12:56.479Z,5.80
2023-03-30T06:15:23.698Z,5.80
2023-03-30T06:17:52.333Z,5.80
2023-03-30T06:20:21.770Z,5.90
2023-03-30T06:22:48.995Z,5.80
2023-03-30T06:25:16.957Z,5.80
2023-03-30T06:27:45.009Z,5.80
2023-03-30T06:30:12.489Z,5.80
2023-03-30T06:32:39.427Z,5.80
2023-03-30T06:35:06.745Z,5.80
2023-03-30T06:37:36.344Z,5.80
2023-03-30T06:40:13.551Z,5.90
2023-03-30T06:42:41.955Z,5.90
2023-03-30T06:45:09.273Z,5.90
2023-03-30T06:47:36.926Z,6.00
2023-03-30T06:50:04.821Z,6.10
2023-03-30T06:52:35.751Z,6.10
2023-03-30T06:55:03.027Z,6.10
2023-03-30T06:57:30.234Z,6.20
2023-03-30T06:59:57.842Z,6.30
2023-03-30T07:02:25.857Z,6.30
2023-03-30T07:04:52.938Z,6.30
2023-03-30T07:07:19.988Z,6.40
2023-03-30T07:09:46.924Z,6.40
2023-03-30T07:12:13.831Z,6.50
2023-03-30T07:14:41.044Z,6.50
2023-03-30T07:17:08.703Z,6.60
2023-03-30T07:19:36.713Z,6.70
2023-03-30T07:22:04.244Z,6.70
2023-03-30T07:24:31.573Z,6.90
2023-03-30T07:26:58.430Z,6.90
2023-03-30T07:29:27.286Z,7.00
2023-03-30T07:31:56.801Z,7.00
2023-03-30T07:34:24.172Z,7.10
2023-03-30T07:36:51.125Z,7.20
2023-03-30T07:39:18.024Z,7.20
2023-03-30T07:41:45.050Z,7.40
2023-03-30T07:44:12.037Z,7.50
2023-03-30T07:46:39.308Z,7.60
2023-03-30T07:49:06.284Z,7.70
2023-03-30T07:51:33.500Z,7.90
2023-03-30T07:54:00.940Z,8.00
2023-03-30T07:56:27.848Z,8.20
2023-03-30T07:58:54.886Z,8.30
2023-03-30T08:01:21.855Z,8.30
2023-03-30T08:03:49.328Z,8.40
2023-03-30T08:06:16.308Z,8.40
2023-03-30T08:08:43.652Z,8.40
2023-03-30T08:11:11.376Z,8.30
2023-03-30T08:13:38.464Z,8.40
2023-03-30T08:16:05.916Z,8.40
2023-03-30T08:18:32.849Z,8.50
2023-03-30T08:20:59.925Z,8.50
2023-03-30T08:23:27.167Z,8.40
2023-03-30T08:25:57.536Z,8.50
2023-03-30T08:28:24.906Z,8.50
2023-03-30T08:30:52.201Z,8.50
2023-03-30T08:33:19.528Z,8.50
2023-03-30T08:35:47.956Z,8.60
2023-03-30T08:38:19.332Z,8.60
2023-03-30T08:40:48.985Z,8.70
2023-03-30T08:43:22.798Z,8.80
2023-03-30T08:48:22.024Z,8.70
2023-03-30T08:51:01.301Z,8.80
2023-03-30T08:53:30.680Z,8.70
2023-03-30T08:56:14.132Z,8.80
2023-03-30T08:59:16.391Z,9.00
2023-03-30T09:01:54.364Z,9.20
2023-03-30T09:04:40.855Z,9.30
2023-03-30T09:07:17.303Z,9.50
2023-03-30T09:09:49.088Z,9.60
2023-03-30T09:12:25.255Z,9.60
2023-03-30T09:14:59.825Z,9.70
2023-03-30T09:17:32.648Z,9.80
2023-03-30T09:20:12.285Z,9.80
2023-03-30T09:22:42.402Z,9.80
2023-03-30T09:25:28.683Z,9.90
2023-03-30T09:28:07.352Z,10.00
2023-03-30T09:30:43.476Z,10.20
2023-03-30T09:33:29.530Z,10.50
2023-03-30T09:36:10.909Z,10.60
2023-03-30T09:38:42.201Z,10.70
2023-03-30T09:41:18.342Z,10.70
2023-03-30T09:43:46.467Z,10.90
2023-03-30T09:46:15.437Z,11.00
2023-03-30T09:48:47.892Z,11.10
2023-03-30T09:51:29.227Z,11.20
2023-03-30T09:54:06.648Z,11.40
2023-03-30T09:56:45.038Z,11.40
2023-03-30T10:02:18.581Z,11.60
2023-03-30T10:04:55.268Z,11.60
2023-03-30T10:07:33.141Z,11.70
2023-03-30T10:10:13.304Z,11.70
2023-03-30T10:12:40.323Z,11.50
2023-03-30T10:15:14.730Z,11.60
2023-03-30T10:17:41.886Z,11.40
2023-03-30T10:20:37.257Z,11.60
2023-03-30T10:23:12.495Z,11.60
2023-03-30T10:25:41.236Z,11.70
2023-03-30T10:28:21.882Z,11.60
2023-03-30T10:30:55.732Z,11.50
2023-03-30T10:33:23.822Z,11.40
2023-03-30T10:35:56.525Z,11.50
2023-03-30T10:38:24.595Z,11.70
2023-03-30T10:41:02.799Z,11.90
2023-03-30T10:43:34.816Z,12.10
2023-03-30T10:46:30.035Z,12.20
2023-03-30T10:48:59.981Z,12.00
2023-03-30T10:51:56.929Z,11.80
2023-03-30T10:54:51.609Z,11.80
2023-03-30T10:57:22.027Z,11.70
2023-03-30T11:00:09.965Z,11.60
2023-03-30T11:03:09.315Z,11.60
2023-03-30T11:05:44.621Z,11.60
2023-03-30T11:08:19.452Z,11.60
2023-03-30T11:10:52.606Z,11.50
2023-03-30T11:13:30.742Z,11.60
2023-03-30T11:16:04.308Z,11.70
2023-03-30T11:19:04.114Z,11.80
2023-03-30T11:21:34.348Z,11.90
2023-03-30T11:24:18.709Z,11.90
2023-03-30T11:27:01.412Z,12.00
2023-03-30T11:29:53.973Z,12.10
2023-03-30T11:32:30.011Z,12.00
2023-03-30T11:35:15.765Z,12.10
2023-03-30T11:38:01.418Z,12.10
2023-03-30T11:40:30.698Z,12.20
2023-03-30T11:42:57.646Z,12.30
2023-03-30T11:45:30.356Z,12.30
2023-03-30T11:50:45.911Z,12.30
2023-03-30T11:53:45.413Z,12.30
2023-03-30T11:56:27.964Z,12.50
2023-03-30T11:59:09.202Z,12.40
2023-03-30T12:02:05.490Z,12.40
2023-03-30T12:04:47.624Z,12.30
2023-03-30T12:07:40.156Z,12.20
2023-03-30T12:10:39.164Z,12.10
2023-03-30T12:13:08.607Z,12.10
2023-03-30T12:16:00.491Z,12.10
2023-03-30T12:19:03.897Z,12.10
2023-03-30T12:21:40.850Z,12.00
2023-03-30T12:24:28.497Z,12.10
2023-03-30T12:27:05.514Z,12.10
2023-03-30T12:32:31.052Z,12.00
2023-03-30T12:34:58.752Z,12.00
2023-03-30T12:37:48.260Z,11.80
2023-03-30T12:40:22.414Z,11.90
2023-03-30T12:43:14.526Z,11.80
2023-03-30T12:46:10.809Z,11.80
2023-03-30T12:48:44.579Z,11.80
2023-03-30T12:51:32.040Z,11.90
2023-03-30T12:54:11.150Z,11.80
2023-03-30T12:56:39.598Z,11.80
2023-03-30T12:59:24.426Z,11.80
2023-03-30T13:02:28.998Z,11.80
2023-03-30T13:04:56.750Z,11.70
2023-03-30T13:07:27.311Z,11.70
2023-03-30T13:09:59.405Z,11.60
2023-03-30T13:12:38.235Z,11.50
2023-03-30T13:15:17.391Z,11.50
2023-03-30T13:18:03.936Z,11.50
2023-03-30T13:20:55.745Z,11.50
2023-03-30T13:23:22.898Z,11.50
2023-03-30T13:26:24.898Z,11.40
2023-03-30T13:29:08.631Z,11.30
2023-03-30T13:32:06.291Z,11.30
2023-03-30T13:35:07.250Z,11.30
2023-03-30T13:37:34.848Z,11.30
2023-03-30T13:40:38.542Z,11.30
2023-03-30T13:43:28.659Z,11.40
2023-03-30T13:46:13.302Z,11.30
2023-03-30T13:48:49.281Z,11.30
2023-03-30T13:51:21.163Z,11.20
2023-03-30T13:54:14.444Z,11.10
2023-03-30T13:56:47.279Z,11.10
2023-03-30T13:59:23.734Z,11.10
2023-03-30T14:01:56.623Z,11.00
2023-03-30T14:04:29.211Z,10.90
2023-03-30T14:06:58.625Z,10.90
2023-03-30T14:09:28.081Z,10.90
2023-03-30T14:12:00.755Z,10.80
2023-03-30T14:14:43.707Z,10.80
2023-03-30T14:17:23.151Z,10.80
2023-03-30T14:20:21.739Z,10.70
2023-03-30T14:22:50.463Z,10.70
2023-03-30T14:25:26.312Z,10.70
2023-03-30T14:27:53.541Z,10.70
2023-03-30T14:30:24.869Z,10.70
2023-03-30T14:33:23.884Z,10.70
2023-03-30T14:35:59.720Z,10.50
2023-03-30T14:38:31.560Z,10.60
2023-03-30T14:40:58.787Z,10.60
2023-03-30T14:43:29.684Z,10.60
2023-03-30T14:45:59.443Z,10.60
2023-03-30T14:48:44.507Z,10.50
2023-03-30T14:51:26.044Z,10.50
2023-03-30T14:53:54.764Z,10.40
2023-03-30T14:56:23.026Z,10.40
2023-03-30T14:58:52.125Z,10.30
2023-03-30T15:01:32.346Z,10.30
2023-03-30T15:04:11.154Z,10.30
2023-03-30T15:06:38.787Z,10.30
2023-03-30T15:09:13.480Z,10.30
2023-03-30T15:11:41.165Z,10.30
2023-03-30T15:14:10.869Z,10.30
2023-03-30T15:16:38.703Z,10.20
2023-03-30T15:19:30.624Z,10.20
2023-03-30T15:22:04.860Z,10.10
2023-03-30T15:24:34.724Z,10.10
2023-03-30T15:27:06.101Z,10.10
2023-03-30T15:29:34.033Z,10.10
2023-03-30T15:32:07.538Z,10.10
2023-03-30T15:34:34.609Z,10.10
2023-03-30T15:37:01.954Z,10.10
2023-03-30T15:39:36.745Z,10.10
2023-03-30T15:42:06.136Z,10.10
2023-03-30T15:44:38.382Z,10.00
2023-03-30T15:47:13.386Z,10.00
2023-03-30T15:49:42.296Z,10.00
2023-03-30T15:52:16.970Z,10.00
2023-03-30T15:54:48.447Z,10.00
2023-03-30T15:57:27.366Z,10.00
2023-03-30T16:00:00.982Z,10.00
2023-03-30T16:02:47.259Z,10.00
2023-03-30T16:05:23.634Z,10.00
2023-03-30T16:07:50.658Z,9.90
2023-03-30T16:10:30.326Z,9.90
2023-03-30T16:12:59.118Z,9.90
2023-03-30T16:15:32.087Z,9.90
2023-03-30T16:17:59.499Z,9.90
2023-03-30T16:20:32.087Z,9.90
2023-03-30T16:22:59.739Z,9.90
2023-03-30T16:25:34.475Z,9.90
2023-03-30T16:28:16.383Z,9.90
2023-03-30T16:30:46.252Z,9.90
2023-03-30T16:33:13.415Z,9.90
2023-03-30T16:35:43.553Z,9.80
2023-03-30T16:38:18.011Z,10.10
2023-03-30T16:40:54.462Z,9.80
2023-03-30T16:43:21.335Z,9.80
2023-03-30T16:45:48.297Z,9.80
2023-03-30T16:48:17.996Z,9.80
2023-03-30T16:50:47.544Z,9.80
2023-03-30T16:53:14.516Z,9.80
2023-03-30T16:55:41.717Z,9.80
2023-03-30T16:58:13.882Z,9.80
2023-03-30T17:00:48.064Z,9.70
2023-03-30T17:03:15.671Z,9.70
2023-03-30T17:05:48.861Z,9.70
2023-03-30T17:08:25.205Z,9.70
2023-03-30T17:10:55.033Z,9.80
2023-03-30T17:13:22.259Z,9.70
2023-03-30T17:15:49.182Z,9.70
2023-03-30T17:18:24.013Z,9.70
2023-03-30T17:20:53.566Z,9.70
2023-03-30T17:23:22.361Z,9.70
2023-03-30T17:25:49.860Z,9.60
2023-03-30T17:28:22.003Z,9.60
2023-03-30T17:30:50.609Z,9.60
2023-03-30T17:33:17.825Z,9.60
2023-03-30T17:35:48.585Z,9.50
2023-03-30T17:38:16.171Z,9.50
2023-03-30T17:40:44.635Z,9.50
2023-03-30T17:43:12.271Z,9.50
2023-03-30T17:45:40.329Z,9.40
2023-03-30T17:48:12.495Z,9.40
2023-03-30T17:50:43.680Z,9.40
2023-03-30T17:53:13.415Z,9.40
2023-03-30T17:55:41.073Z,9.40
2023-03-30T17:58:26.499Z,9.40
2023-03-30T18:00:53.795Z,9.40
2023-03-30T18:03:22.353Z,9.30
2023-03-30T18:05:50.531Z,9.30
2023-03-30T18:08:21.451Z,9.20
2023-03-30T18:10:51.695Z,9.10
2023-03-30T18:13:22.698Z,9.10
2023-03-30T18:15:52.042Z,9.00
2023-03-30T18:18:25.040Z,9.00
2023-03-30T18:20:56.326Z,9.00
2023-03-30T18:23:23.775Z,8.90
2023-03-30T18:25:51.006Z,8.90
2023-03-30T18:28:22.719Z,9.00
2023-03-30T18:30:51.164Z,9.00
2023-03-30T18:33:18.287Z,9.00
2023-03-30T18:35:47.667Z,8.90
2023-03-30T18:38:18.045Z,8.90
2023-03-30T18:40:49.500Z,8.90
2023-03-30T18:43:16.950Z,9.00
2023-03-30T18:45:49.653Z,9.00
2023-03-30T18:48:21.746Z,9.00
2023-03-30T18:50:50.845Z,9.00
2023-03-30T18:53:20.179Z,8.90
2023-03-30T18:55:49.360Z,8.90
2023-03-30T18:58:22.082Z,8.90
2023-03-30T19:00:50.882Z,8.90
2023-03-30T19:03:18.960Z,8.90
2023-03-30T19:05:46.810Z,9.00
2023-03-30T19:08:19.288Z,8.90
2023-03-30T19:10:48.171Z,9.00
2023-03-30T19:13:17.248Z,9.00
2023-03-30T19:15:45.835Z,9.00
2023-03-30T19:18:14.179Z,9.00
2023-03-30T19:20:42.289Z,9.00
2023-03-30T19:23:12.743Z,9.00
2023-03-30T19:25:39.912Z,9.00
2023-03-30T19:28:07.750Z,9.00
2023-03-30T19:30:39.271Z,9.00
2023-03-30T19:33:09.794Z,9.00
2023-03-30T19:35:36.970Z,9.10
2023-03-30T19:38:04.480Z,9.10
2023-03-30T19:40:31.362Z,9.20
2023-03-30T19:42:58.268Z,9.20
2023-03-30T19:45:25.257Z,9.30
2023-03-30T19:47:52.356Z,9.30
2023-03-30T19:50:23.282Z,9.30
2023-03-30T19:52:51.442Z,9.30
2023-03-30T19:55:19.637Z,9.30
2023-03-30T19:57:46.962Z,9.30
2023-03-30T20:00:16.413Z,9.30
2023-03-30T20:02:46.655Z,9.30
2023-03-30T20:05:15.740Z,9.30
2023-03-30T20:07:44.383Z,9.30
2023-03-30T20:10:14.972Z,9.30
2023-03-30T20:12:41.951Z,9.30
2023-03-30T20:15:09.793Z,9.30
2023-03-30T20:17:38.491Z,9.40
2023-03-30T20:20:09.357Z,9.40
2023-03-30T20:22:38.491Z,9.50
2023-03-30T20:25:07.900Z,9.50
2023-03-30T20:27:36.253Z,9.60
2023-03-30T20:30:05.287Z,9.60
2023-03-30T20:32:33.412Z,9.70
2023-03-30T20:35:00.393Z,9.70
2023-03-30T20:37:27.284Z,9.70
2023-03-30T20:39:54.476Z,9.70
2023-03-30T20:42:26.366Z,9.70
2023-03-30T20:44:53.707Z,9.70
2023-03-30T20:47:26.191Z,9.70
2023-03-30T20:49:56.256Z,9.70
2023-03-30T20:52:24.023Z,9.70
2023-03-30T20:54:52.515Z,9.70
2023-03-30T20:57:20.685Z,9.60
2023-03-30T20:59:48.226Z,9.60
2023-03-30T21:02:16.524Z,9.60
2023-03-30T21:04:44.616Z,9.60
2023-03-30T21:07:12.478Z,9.70
2023-03-30T21:09:39.841Z,9.70
2023-03-30T21:12:07.728Z,9.70
2023-03-30T21:14:34.604Z,9.70
2023-03-30T21:17:01.789Z,9.70
2023-03-30T21:19:28.782Z,9.70
2023-03-30T21:21:55.873Z,9.70
2023-03-30T21:24:22.704Z,9.60
2023-03-30T21:26:49.605Z,9.60
2023-03-30T21:29:16.476Z,9.60
2023-03-30T21:31:43.453Z,9.60
2023-03-30T21:34:11.518Z,9.60
2023-03-30T21:36:39.298Z,9.60
2023-03-30T21:39:06.316Z,9.60
2023-03-30T21:41:33.397Z,9.60
2023-03-30T21:44:00.443Z,9.70
2023-03-30T21:46:27.711Z,9.50
2023-03-30T21:48:54.796Z,9.50
2023-03-30T21:51:26.631Z,9.60
2023-03-30T21:53:54.776Z,9.60
2023-03-30T21:56:23.531Z,9.60
2023-03-30T21:58:51.122Z,9.60
2023-03-30T22:01:19.520Z,9.60
2023-03-30T22:03:46.807Z,9.60
2023-03-30T22:06:16.372Z,9.60
2023-03-30T22:08:47.623Z,9.70
2023-03-30T22:11:17.000Z,9.70
2023-03-30T22:13:46.192Z,9.70
2023-03-30T22:16:22.761Z,9.70
2023-03-30T22:18:50.572Z,9.70
2023-03-30T22:21:24.109Z,9.70
2023-03-30T22:23:52.236Z,9.70
2023-03-30T22:26:19.167Z,9.70
2023-03-30T22:28:46.291Z,9.70
2023-03-30T22:31:15.541Z,9.60
2023-03-30T22:33:42.814Z,9.60
2023-03-30T22:36:24.607Z,9.60
2023-03-30T22:38:52.474Z,9.70
2023-03-30T22:41:24.016Z,9.70
2023-03-30T22:43:52.709Z,9.60
2023-03-30T22:46:20.194Z,9.60
2023-03-30T22:48:49.785Z,9.60
2023-03-30T22:51:23.652Z,9.50
2023-03-30T22:53:51.082Z,9.50
2023-03-30T22:56:18.042Z,9.50
2023-03-30T22:58:45.119Z,9.60
2023-03-30T23:01:12.440Z,9.50
2023-03-30T23:03:39.489Z,9.50
2023-03-30T23:06:06.796Z,9.40
2023-03-30T23:08:34.023Z,9.40
2023-03-30T23:11:09.827Z,9.40
2023-03-30T23:13:37.851Z,9.40
2023-03-30T23:16:06.985Z,9.50
2023-03-30T23:18:34.896Z,9.50
2023-03-30T23:21:06.498Z,9.40
2023-03-30T23:23:37.785Z,9.40
2023-03-30T23:26:08.917Z,9.40
2023-03-30T23:28:41.508Z,9.40
2023-03-30T23:31:13.456Z,9.40
2023-03-30T23:33:41.704Z,9.40
2023-03-30T23:36:10.466Z,9.40
2023-03-30T23:38:37.883Z,9.30
2023-03-30T23:41:05.096Z,9.40
2023-03-30T23:43:32.384Z,9.40
2023-03-30T23:45:59.293Z,9.40
2023-03-30T23:48:27.107Z,9.50
2023-03-30T23:50:53.949Z,9.50
2023-03-30T23:53:20.955Z,9.50
2023-03-30T23:55:50.220Z,9.50
